createdAt,value
2019-04-11T00:02:30.986Z,99685.88
2019-04-11T00:05:37.066Z,99683.70
2019-04-11T00:08:42.294Z,99683.06
2019-04-11T00:11:48.287Z,99686.38
2019-04-11T00:14:53.931Z,99685.89
2019-04-11T00:17:59.186Z,99679.72
2019-04-11T00:21:04.557Z,99689.55
2019-04-11T00:24:10.399Z,99684.39
2019-04-11T00:27:15.594Z,99684.55
2019-04-11T00:30:20.890Z,99693.53
2019-04-11T00:33:27.225Z,99702.02
2019-04-11T00:36:32.581Z,99703.02
2019-04-11T00:39:37.751Z,99709.67
2019-04-11T00:42:43.013Z,99710.98
2019-04-11T00:45:48.016Z,99714.41
2019-04-11T00:48:54.390Z,99706.61
2019-04-11T00:52:00.372Z,99713.39
2019-04-11T00:55:07.206Z,99709.95
2019-04-11T00:58:13.556Z,99708.60
2019-04-11T01:01:19.798Z,99707.30
2019-04-11T01:04:25.524Z,99712.16
2019-04-11T01:07:31.105Z,99712.84
2019-04-11T01:10:36.298Z,99714.34
2019-04-11T01:13:47.744Z,99712.48
2019-04-11T01:17:07.522Z,99722.55
2019-04-11T01:20:13.341Z,99727.36
2019-04-11T01:23:18.585Z,99724.25
2019-04-11T01:26:23.749Z,99728.52
2019-04-11T01:29:28.988Z,99728.14
2019-04-11T01:32:34.707Z,99730.89
2019-04-11T01:35:39.852Z,99726.91
2019-04-11T01:38:49.043Z,99727.55
2019-04-11T01:41:55.186Z,99727.45
2019-04-11T01:45:01.049Z,99721.82
2019-04-11T01:48:27.878Z,99726.13
2019-04-11T01:51:33.866Z,99722.38
2019-04-11T01:54:39.600Z,99730.08
2019-04-11T01:57:44.806Z,99732.44
2019-04-11T02:01:06.385Z,99733.34
2019-04-11T02:04:32.085Z,99744.29
2019-04-11T02:07:38.584Z,99748.77
2019-04-11T02:10:43.854Z,99748.05
2019-04-11T02:13:50.247Z,99743.70
2019-04-11T02:16:57.081Z,99755.83
2019-04-11T02:20:02.779Z,99753.12
2019-04-11T02:23:17.491Z,99759.88
2019-04-11T02:26:29.364Z,99765.78
2019-04-11T02:29:35.428Z,99761.59
2019-04-11T02:32:42.689Z,99764.53
2019-04-11T02:35:49.319Z,99770.55
2019-04-11T02:38:57.563Z,99765.86
2019-04-11T02:42:02.252Z,99768.45
2019-04-11T02:45:19.622Z,99772.95
2019-04-11T02:48:16.303Z,99774.22
2019-04-11T02:51:22.705Z,99776.97
2019-04-11T02:54:28.493Z,99783.95
2019-04-11T02:57:36.162Z,99782.69
2019-04-11T03:00:42.209Z,99782.11
2019-04-11T03:03:47.560Z,99797.05
2019-04-11T03:06:52.874Z,99799.25
2019-04-11T03:09:58.124Z,99788.66
2019-04-11T03:13:04.934Z,99793.29
2019-04-11T03:16:25.000Z,99792.09
2019-04-11T03:19:30.337Z,99804.63
2019-04-11T03:22:24.809Z,99800.59
2019-04-11T03:25:31.202Z,99804.76
2019-04-11T03:28:38.868Z,99812.67
2019-04-11T03:32:33.108Z,99817.58
2019-04-11T03:35:45.519Z,99817.91
2019-04-11T03:38:42.585Z,99829.01
2019-04-11T03:41:42.582Z,99827.38
2019-04-11T03:44:38.330Z,99831.66
2019-04-11T03:47:54.480Z,99828.27
2019-04-11T03:50:46.825Z,99833.86
2019-04-11T03:53:53.602Z,99830.75
2019-04-11T03:56:59.207Z,99840.20
2019-04-11T04:00:06.334Z,99836.32
2019-04-11T04:03:13.475Z,99846.66
2019-04-11T04:06:19.144Z,99852.55
2019-04-11T04:09:26.339Z,99852.42
2019-04-11T04:12:33.589Z,99850.94
2019-04-11T04:16:07.565Z,99857.66
2019-04-11T04:19:16.364Z,99856.89
2019-04-11T04:22:37.621Z,99858.13
2019-04-11T04:25:46.718Z,99868.23
2019-04-11T04:28:51.277Z,99863.64
2019-04-11T04:31:57.332Z,99870.26
2019-04-11T04:35:07.195Z,99864.89
2019-04-11T04:38:11.380Z,99875.16
2019-04-11T04:41:29.954Z,99877.28
2019-04-11T04:44:26.447Z,99882.66
2019-04-11T04:47:39.503Z,99889.25
2019-04-11T04:50:39.292Z,99885.08
2019-04-11T04:53:45.231Z,99895.68
2019-04-11T04:56:52.284Z,99893.86
2019-04-11T04:59:58.324Z,99896.14
2019-04-11T05:03:05.448Z,99901.48
2019-04-11T05:06:12.055Z,99896.90
2019-04-11T05:09:17.867Z,99901.20
2019-04-11T05:12:23.359Z,99905.16
2019-04-11T05:15:28.511Z,99904.16
2019-04-11T05:18:34.253Z,99899.06
2019-04-11T05:21:39.497Z,99903.08
2019-04-11T05:24:45.365Z,99906.39
2019-04-11T05:27:50.763Z,99910.56
2019-04-11T05:30:55.973Z,99914.55
2019-04-11T05:34:03.442Z,99914.52
2019-04-11T05:37:09.035Z,99917.73
2019-04-11T05:40:15.469Z,99903.67
2019-04-11T05:43:22.507Z,99910.50
2019-04-11T05:46:35.519Z,99922.20
2019-04-11T05:49:43.888Z,99910.65
2019-04-11T05:52:50.386Z,99914.19
2019-04-11T05:55:57.424Z,99914.38
2019-04-11T05:59:15.171Z,99913.67
2019-04-11T06:02:46.127Z,99923.03
2019-04-11T06:06:01.476Z,99926.63
2019-04-11T06:09:13.372Z,99927.33
2019-04-11T06:12:48.868Z,99938.91
2019-04-11T06:15:57.426Z,99931.90
2019-04-11T06:19:30.458Z,99936.30
2019-04-11T06:22:38.463Z,99941.77
2019-04-11T06:26:06.693Z,99946.95
2019-04-11T06:29:24.984Z,99944.71
2019-04-11T06:32:49.422Z,99947.19
2019-04-11T06:36:20.911Z,99960.45
2019-04-11T06:39:59.363Z,99952.94
2019-04-11T06:43:12.550Z,99954.64
2019-04-11T06:46:48.583Z,99943.67
2019-04-11T06:49:50.986Z,99954.56
2019-04-11T06:52:56.463Z,99954.17
2019-04-11T06:56:27.270Z,99961.16
2019-04-11T06:59:42.937Z,99953.16
2019-04-11T07:02:57.189Z,99958.20
2019-04-11T07:06:06.997Z,99958.64
2019-04-11T07:09:32.908Z,99952.36
2019-04-11T07:12:55.991Z,99953.20
2019-04-11T07:16:02.700Z,99952.52
2019-04-11T07:19:26.884Z,99948.90
2019-04-11T07:22:50.950Z,99946.86
2019-04-11T07:26:10.730Z,99954.63
2019-04-11T07:29:50.743Z,99948.41
2019-04-11T07:33:02.227Z,99956.07
2019-04-11T07:36:27.399Z,99954.31
2019-04-11T07:40:05.709Z,99962.21
2019-04-11T07:43:19.060Z,99961.56
2019-04-11T07:46:49.764Z,99961.38
2019-04-11T07:49:55.679Z,99952.36
2019-04-11T07:53:03.110Z,99956.62
2019-04-11T07:56:08.411Z,99957.11
2019-04-11T07:59:23.452Z,99954.09
2019-04-11T08:02:47.829Z,99968.34
2019-04-11T08:06:17.921Z,99957.78
2019-04-11T08:09:42.124Z,99961.16
2019-04-11T08:12:48.017Z,99961.36
2019-04-11T08:16:12.530Z,99964.67
2019-04-11T08:19:46.923Z,99965.19
2019-04-11T08:22:55.136Z,99963.41
2019-04-11T08:26:13.657Z,99975.28
2019-04-11T08:29:20.134Z,99962.20
2019-04-11T08:32:44.279Z,99968.91
2019-04-11T08:36:14.230Z,99973.94
2019-04-11T08:39:24.830Z,99963.97
2019-04-11T08:42:48.669Z,99964.92
2019-04-11T08:46:02.604Z,99958.32
2019-04-11T08:49:13.876Z,99962.66
2019-04-11T08:52:42.388Z,99959.49
2019-04-11T08:55:58.565Z,99959.86
2019-04-11T08:59:47.119Z,99955.22
2019-04-11T09:03:17.683Z,99963.25
2019-04-11T09:06:30.582Z,99950.55
2019-04-11T09:09:57.702Z,99955.34
2019-04-11T09:13:15.292Z,99957.81
2019-04-11T09:16:39.643Z,99952.74
2019-04-11T09:20:10.176Z,99958.13
2019-04-11T09:23:18.062Z,99962.34
2019-04-11T09:26:42.548Z,99964.91
2019-04-11T09:29:52.506Z,99956.13
2019-04-11T09:33:15.296Z,99951.91
2019-04-11T09:36:51.817Z,99957.31
2019-04-11T09:40:15.984Z,99952.75
2019-04-11T09:43:24.154Z,99941.84
2019-04-11T09:46:59.209Z,99947.34
2019-04-11T09:50:05.829Z,99945.30
2019-04-11T09:53:12.109Z,99939.57
2019-04-11T09:56:37.783Z,99944.16
2019-04-11T10:00:01.942Z,99944.34
2019-04-11T10:03:28.115Z,99943.76
2019-04-11T10:07:07.425Z,99935.91
2019-04-11T10:10:33.017Z,99940.04
2019-04-11T10:14:07.268Z,99937.15
2019-04-11T10:17:38.481Z,99943.00
2019-04-11T10:20:44.618Z,99940.87
2019-04-11T10:24:24.331Z,99942.21
2019-04-11T10:27:55.260Z,99944.98
2019-04-11T10:31:20.204Z,99943.86
2019-04-11T10:34:47.942Z,99946.13
2019-04-11T10:37:53.257Z,99941.59
2019-04-11T10:41:06.626Z,99940.75
2019-04-11T10:44:13.912Z,99944.91
2019-04-11T10:47:21.307Z,99941.89
2019-04-11T10:50:48.588Z,99942.93
2019-04-11T10:53:56.100Z,99935.95
2019-04-11T10:57:21.476Z,99931.32
2019-04-11T11:00:33.376Z,99939.45
2019-04-11T11:03:51.471Z,99935.13
2019-04-11T11:07:04.464Z,99940.30
2019-04-11T11:10:24.127Z,99931.98
2019-04-11T11:13:48.280Z,99928.67
2019-04-11T11:17:10.793Z,99935.75
2019-04-11T11:20:45.524Z,99926.17
2019-04-11T11:24:07.209Z,99924.91
2019-04-11T11:27:10.666Z,99940.66
2019-04-11T11:30:33.677Z,99947.44
2019-04-11T11:33:38.890Z,99939.58
2019-04-11T11:37:18.524Z,99937.20
2019-04-11T11:40:50.068Z,99938.16
2019-04-11T11:43:55.445Z,99936.08
2019-04-11T11:47:19.509Z,99949.66
2019-04-11T11:50:25.221Z,99948.37
2019-04-11T11:53:38.613Z,99952.38
2019-04-11T11:56:44.536Z,99944.95
2019-04-11T11:59:53.750Z,99944.66
2019-04-11T12:03:31.162Z,99951.42
2019-04-11T12:06:36.914Z,99943.19
2019-04-11T12:10:01.173Z,99929.31
2019-04-11T12:13:45.435Z,99936.68
2019-04-11T12:17:01.977Z,99938.63
2019-04-11T12:20:13.413Z,99943.68
2019-04-11T12:23:29.494Z,99936.97
2019-04-11T12:26:40.764Z,99932.27
2019-04-11T12:30:05.885Z,99937.48
2019-04-11T12:33:19.359Z,99942.74
2019-04-11T12:36:28.438Z,99937.66
2019-04-11T12:39:58.698Z,99931.91
2019-04-11T12:43:04.590Z,99928.00
2019-04-11T12:46:46.979Z,99929.41
2019-04-11T12:50:20.229Z,99926.95
2019-04-11T12:53:27.074Z,99930.44
2019-04-11T12:57:09.342Z,99930.84
2019-04-11T13:00:25.329Z,99934.66
2019-04-11T13:03:48.108Z,99925.63
2019-04-11T13:07:15.690Z,99917.00
2019-04-11T13:10:29.082Z,99927.91
2019-04-11T13:13:54.555Z,99918.03
2019-04-11T13:17:00.460Z,99919.26
2019-04-11T13:20:25.324Z,99919.11
2019-04-11T13:23:42.741Z,99919.73
2019-04-11T13:27:05.521Z,99913.62
2019-04-11T13:30:28.449Z,99912.27
2019-04-11T13:33:33.575Z,99911.71
2019-04-11T13:37:06.801Z,99903.86
2019-04-11T13:40:24.931Z,99902.30
2019-04-11T13:43:33.439Z,99900.16
2019-04-11T13:46:57.643Z,99896.69
2019-04-11T13:50:16.132Z,99900.24
2019-04-11T13:53:49.540Z,99897.41
2019-04-11T13:57:28.773Z,99901.33
2019-04-11T14:00:47.705Z,99897.40
2019-04-11T14:04:10.016Z,99888.63
2019-04-11T14:07:17.530Z,99893.48
2019-04-11T14:10:22.934Z,99888.13
2019-04-11T14:13:36.220Z,99877.12
2019-04-11T14:16:46.887Z,99879.23
2019-04-11T14:20:11.646Z,99876.05
2019-04-11T14:23:35.456Z,99878.09
2019-04-11T14:26:43.236Z,99875.31
2019-04-11T14:30:06.157Z,99875.69
2019-04-11T14:33:11.501Z,99870.56
2019-04-11T14:36:34.386Z,99877.64
2019-04-11T14:39:42.219Z,99866.59
2019-04-11T14:43:06.338Z,99868.72
2019-04-11T14:46:28.668Z,99875.86
2019-04-11T14:49:34.046Z,99876.05
2019-04-11T14:53:04.414Z,99870.67
2019-04-11T14:56:09.496Z,99873.31
2019-04-11T14:59:27.090Z,99884.69
2019-04-11T15:02:54.055Z,99878.02
2019-04-11T15:06:27.917Z,99882.93
2019-04-11T15:09:52.206Z,99880.18
2019-04-11T15:12:57.674Z,99875.48
2019-04-11T15:16:19.406Z,99886.13
2019-04-11T15:19:24.641Z,99876.30
2019-04-11T15:22:44.409Z,99879.66
2019-04-11T15:26:08.807Z,99880.14
2019-04-11T15:29:27.709Z,99879.28
2019-04-11T15:33:10.045Z,99880.69
2019-04-11T15:36:16.460Z,99885.51
2019-04-11T15:39:52.871Z,99884.89
2019-04-11T15:43:29.022Z,99883.06
2019-04-11T15:46:35.370Z,99887.41
2019-04-11T15:50:08.851Z,99892.43
2019-04-11T15:53:18.710Z,99886.69
2019-04-11T15:56:42.932Z,99891.97
2019-04-11T16:00:07.032Z,99886.94
2019-04-11T16:03:14.203Z,99890.29
2019-04-11T16:06:38.888Z,99888.17
2019-04-11T16:09:42.910Z,99890.07
2019-04-11T16:12:55.080Z,99886.39
2019-04-11T16:16:06.788Z,99893.25
2019-04-11T16:19:25.720Z,99889.96
2019-04-11T16:23:01.901Z,99886.77
2019-04-11T16:26:09.753Z,99890.88
2019-04-11T16:29:21.731Z,99899.86
2019-04-11T16:32:27.897Z,99897.50
2019-04-11T16:35:39.013Z,99907.30
2019-04-11T16:38:51.457Z,99907.42
2019-04-11T16:42:01.565Z,99912.20
2019-04-11T16:45:39.929Z,99918.87
2019-04-11T16:48:45.109Z,99925.28
2019-04-11T16:51:50.345Z,99932.14
2019-04-11T16:54:56.555Z,99923.23
2019-04-11T16:58:01.708Z,99931.97
2019-04-11T17:01:07.838Z,99932.37
2019-04-11T17:04:13.064Z,99928.65
2019-04-11T17:07:38.896Z,99927.00
2019-04-11T17:11:21.595Z,99923.58
2019-04-11T17:14:28.177Z,99924.83
2019-04-11T17:17:33.647Z,99931.34
2019-04-11T17:20:39.740Z,99924.51
2019-04-11T17:23:47.163Z,99931.86
2019-04-11T17:26:52.833Z,99935.97
2019-04-11T17:29:58.505Z,99944.84
2019-04-11T17:33:03.676Z,99944.80
2019-04-11T17:36:08.826Z,99947.27
2019-04-11T17:39:14.054Z,99961.05
2019-04-11T17:42:19.270Z,99960.47
2019-04-11T17:45:24.364Z,99965.80
2019-04-11T17:48:29.604Z,99967.13
2019-04-11T17:51:35.321Z,99972.33
2019-04-11T17:54:40.594Z,99977.68
2019-04-11T17:57:45.800Z,99988.49
2019-04-11T18:01:00.193Z,99986.20
2019-04-11T18:04:04.767Z,99992.94
2019-04-11T18:07:09.959Z,100000.61
2019-04-11T18:10:15.136Z,100006.37
2019-04-11T18:13:20.495Z,100008.89
2019-04-11T18:16:25.623Z,100022.67
2019-04-11T18:19:30.999Z,100020.91
2019-04-11T18:22:36.129Z,100023.92
2019-04-11T18:25:41.341Z,100031.63
2019-04-11T18:28:46.597Z,100042.92
2019-04-11T18:31:51.878Z,100043.13
2019-04-11T18:34:57.183Z,100050.03
2019-04-11T18:38:02.669Z,100054.37
2019-04-11T18:41:07.888Z,100068.31
2019-04-11T18:44:13.129Z,100075.64
2019-04-11T18:47:18.343Z,100079.52
2019-04-11T18:50:23.601Z,100090.34
2019-04-11T18:53:28.849Z,100089.03
2019-04-11T18:56:34.106Z,100094.14
2019-04-11T18:59:39.256Z,100091.75
2019-04-11T19:02:44.539Z,100099.67
2019-04-11T19:05:49.727Z,100107.16
2019-04-11T19:08:55.000Z,100104.97
2019-04-11T19:12:00.342Z,100109.26
2019-04-11T19:15:08.014Z,100119.68
2019-04-11T19:18:16.041Z,100128.25
2019-04-11T19:21:21.189Z,100129.36
2019-04-11T19:24:35.386Z,100134.01
2019-04-11T19:27:33.321Z,100133.58
2019-04-11T19:30:38.405Z,100142.77
2019-04-11T19:33:43.616Z,100132.95
2019-04-11T19:36:48.823Z,100143.19
2019-04-11T19:39:54.161Z,100142.37
2019-04-11T19:42:59.435Z,100147.61
2019-04-11T19:46:04.571Z,100152.41
2019-04-11T19:49:09.915Z,100151.74
2019-04-11T19:52:15.140Z,100153.44
2019-04-11T19:55:29.092Z,100153.94
2019-04-11T19:58:34.226Z,100158.81
2019-04-11T20:01:39.566Z,100164.05
2019-04-11T20:04:46.592Z,100166.73
2019-04-11T20:07:51.565Z,100174.00
2019-04-11T20:10:56.663Z,100171.74
2019-04-11T20:14:02.879Z,100169.74
2019-04-11T20:17:09.251Z,100175.11
2019-04-11T20:20:14.468Z,100172.16
2019-04-11T20:23:19.609Z,100173.83
2019-04-11T20:26:24.892Z,100165.47
2019-04-11T20:29:30.063Z,100162.83
2019-04-11T20:32:36.264Z,100167.81
2019-04-11T20:35:41.594Z,100167.48
2019-04-11T20:38:46.798Z,100182.49
2019-04-11T20:41:53.494Z,100173.83
2019-04-11T20:44:59.201Z,100183.98
2019-04-11T20:48:04.474Z,100184.15
2019-04-11T20:51:09.580Z,100180.28
2019-04-11T20:54:14.846Z,100182.48
2019-04-11T20:57:25.585Z,100178.83
2019-04-11T21:00:26.771Z,100179.47
2019-04-11T21:03:32.085Z,100178.00
2019-04-11T21:06:37.333Z,100179.47
2019-04-11T21:09:42.527Z,100185.75
2019-04-11T21:12:47.639Z,100184.45
2019-04-11T21:15:52.905Z,100189.98
2019-04-11T21:18:58.159Z,100193.05
2019-04-11T21:22:03.310Z,100188.95
2019-04-11T21:25:08.512Z,100189.02
2019-04-11T21:28:13.665Z,100190.59
2019-04-11T21:31:18.899Z,100192.66
2019-04-11T21:34:24.144Z,100194.31
2019-04-11T21:37:30.182Z,100195.97
2019-04-11T21:40:36.872Z,100196.25
2019-04-11T21:43:42.065Z,100192.98
2019-04-11T21:46:49.337Z,100202.09
2019-04-11T21:49:54.161Z,100203.78
2019-04-11T21:52:59.405Z,100201.34
2019-04-11T21:56:04.810Z,100205.97
2019-04-11T21:59:12.192Z,100207.62
2019-04-11T22:02:17.576Z,100207.69
2019-04-11T22:05:22.719Z,100208.29
2019-04-11T22:08:27.919Z,100201.58
2019-04-11T22:11:33.081Z,100202.85
2019-04-11T22:14:41.289Z,100199.30
2019-04-11T22:17:45.501Z,100199.98
2019-04-11T22:20:51.391Z,100197.55
2019-04-11T22:23:56.526Z,100199.22
2019-04-11T22:27:01.665Z,100200.69
2019-04-11T22:30:08.347Z,100200.31
2019-04-11T22:33:28.833Z,100198.00
2019-04-11T22:36:33.986Z,100200.62
2019-04-11T22:39:39.115Z,100198.20
2019-04-11T22:42:44.367Z,100213.55
2019-04-11T22:45:49.464Z,100203.75
2019-04-11T22:48:54.595Z,100207.52
2019-04-11T22:51:59.692Z,100212.19
2019-04-11T22:55:05.330Z,100215.47
2019-04-11T22:58:13.942Z,100220.37
2019-04-11T23:01:17.333Z,100210.84
2019-04-11T23:04:22.465Z,100215.66
2019-04-11T23:07:27.598Z,100217.36
2019-04-11T23:10:32.752Z,100216.05
2019-04-11T23:13:37.871Z,100217.39
2019-04-11T23:16:44.154Z,100212.02
2019-04-11T23:19:49.880Z,100215.11
2019-04-11T23:22:55.164Z,100215.72
2019-04-11T23:26:00.303Z,100218.12
2019-04-11T23:29:05.410Z,100215.03
2019-04-11T23:32:10.614Z,100226.50
2019-04-11T23:35:15.736Z,100221.97
2019-04-11T23:38:23.550Z,100222.34
2019-04-11T23:41:27.863Z,100222.47
2019-04-11T23:44:33.035Z,100226.68
2019-04-11T23:47:38.316Z,100224.81
2019-04-11T23:50:43.470Z,100223.17
2019-04-11T23:53:48.582Z,100220.36
2019-04-11T23:56:54.689Z,100224.34
